createdAt,value
2022-09-12T00:02:23.889Z,83.48
2022-09-12T00:04:55.241Z,83.43
2022-09-12T00:07:26.324Z,83.62
2022-09-12T00:09:57.385Z,83.63
2022-09-12T00:12:28.344Z,83.54
2022-09-12T00:15:00.661Z,83.43
2022-09-12T00:17:31.491Z,83.37
2022-09-12T00:20:02.787Z,83.16
2022-09-12T00:22:33.960Z,82.99
2022-09-12T00:25:06.015Z,83.01
2022-09-12T00:27:36.964Z,83.01
2022-09-12T00:30:09.759Z,82.91
2022-09-12T00:32:40.620Z,82.98
2022-09-12T00:35:11.666Z,83.06
2022-09-12T00:37:42.717Z,82.98
2022-09-12T00:40:13.980Z,83.04
2022-09-12T00:42:44.752Z,82.95
2022-09-12T00:45:25.549Z,82.81
2022-09-12T00:47:58.392Z,82.87
2022-09-12T00:50:29.685Z,82.78
2022-09-12T00:53:05.445Z,82.74
2022-09-12T00:55:41.503Z,82.58
2022-09-12T00:58:15.969Z,82.51
2022-09-12T01:00:47.516Z,82.48
2022-09-12T01:03:20.809Z,82.40
2022-09-12T01:06:00.644Z,82.39
2022-09-12T01:08:34.158Z,82.41
2022-09-12T01:11:05.404Z,82.42
2022-09-12T01:13:37.568Z,82.38
2022-09-12T01:16:09.950Z,82.33
2022-09-12T01:18:52.562Z,82.29
2022-09-12T01:21:34.992Z,82.30
2022-09-12T01:24:28.966Z,82.22
2022-09-12T01:27:20.424Z,82.19
2022-09-12T01:30:30.194Z,82.15
2022-09-12T01:33:21.801Z,82.15
2022-09-12T01:36:04.640Z,82.09
2022-09-12T01:38:40.716Z,82.08
2022-09-12T01:41:23.682Z,81.96
2022-09-12T01:44:03.164Z,81.98
2022-09-12T01:46:39.441Z,81.96
2022-09-12T01:49:17.024Z,81.88
2022-09-12T01:51:57.022Z,81.87
2022-09-12T01:54:31.816Z,81.81
2022-09-12T01:57:09.878Z,81.73
2022-09-12T01:59:46.280Z,81.80
2022-09-12T02:02:21.584Z,81.74
2022-09-12T02:04:59.729Z,81.72
2022-09-12T02:07:37.364Z,81.69
2022-09-12T02:10:13.681Z,81.67
2022-09-12T02:12:47.551Z,81.64
2022-09-12T02:15:24.849Z,81.71
2022-09-12T02:17:59.296Z,81.70
2022-09-12T02:20:47.885Z,81.80
2022-09-12T02:23:23.706Z,81.85
2022-09-12T02:25:58.815Z,81.87
2022-09-12T02:28:35.736Z,81.89
2022-09-12T02:31:18.441Z,81.91
2022-09-12T02:33:59.105Z,81.98
2022-09-12T02:36:40.234Z,82.04
2022-09-12T02:39:11.612Z,82.12
2022-09-12T02:41:42.583Z,82.13
2022-09-12T02:44:11.996Z,82.00
2022-09-12T02:46:47.489Z,82.22
2022-09-12T02:49:18.629Z,82.27
2022-09-12T02:51:50.875Z,82.22
2022-09-12T02:54:22.210Z,82.16
2022-09-12T02:56:53.096Z,82.02
2022-09-12T02:59:26.443Z,82.00
2022-09-12T03:02:14.704Z,81.98
2022-09-12T03:05:03.236Z,81.99
2022-09-12T03:07:51.217Z,82.00
2022-09-12T03:10:29.713Z,82.00
2022-09-12T03:13:19.638Z,82.04
2022-09-12T03:16:04.240Z,82.21
2022-09-12T03:18:47.517Z,82.22
2022-09-12T03:21:27.435Z,82.41
2022-09-12T03:24:10.441Z,82.49
2022-09-12T03:26:45.766Z,82.50
2022-09-12T03:29:19.548Z,82.49
2022-09-12T03:31:58.335Z,82.59
2022-09-12T03:34:30.295Z,82.59
2022-09-12T03:37:01.302Z,82.56
2022-09-12T03:39:32.315Z,82.64
2022-09-12T03:42:03.284Z,82.60
2022-09-12T03:44:34.264Z,82.57
2022-09-12T03:47:10.560Z,82.57
2022-09-12T03:49:42.211Z,82.46
2022-09-12T03:52:13.181Z,82.41
2022-09-12T03:54:42.663Z,82.28
2022-09-12T03:57:11.916Z,82.42
2022-09-12T03:59:43.127Z,82.39
2022-09-12T04:02:14.170Z,82.34
2022-09-12T04:04:49.037Z,82.18
2022-09-12T04:07:19.876Z,82.27
2022-09-12T04:09:51.075Z,82.36
2022-09-12T04:12:21.926Z,82.34
2022-09-12T04:14:52.634Z,82.60
2022-09-12T04:17:23.615Z,82.71
2022-09-12T04:19:54.454Z,82.57
2022-09-12T04:22:25.746Z,82.41
2022-09-12T04:24:56.882Z,82.61
2022-09-12T04:27:28.400Z,82.59
2022-09-12T04:30:00.215Z,82.57
2022-09-12T04:32:32.285Z,82.62
2022-09-12T04:35:03.309Z,82.68
2022-09-12T04:37:34.282Z,83.12
2022-09-12T04:40:06.136Z,83.45
2022-09-12T04:42:36.901Z,83.56
2022-09-12T04:45:09.545Z,83.28
2022-09-12T04:47:40.297Z,83.34
2022-09-12T04:50:12.530Z,83.41
2022-09-12T04:52:43.628Z,83.52
2022-09-12T04:55:14.747Z,83.55
2022-09-12T04:57:45.509Z,83.66
2022-09-12T05:00:15.630Z,83.90
2022-09-12T05:02:46.526Z,83.86
2022-09-12T05:05:16.033Z,83.90
2022-09-12T05:07:45.279Z,83.90
2022-09-12T05:10:16.553Z,83.96
2022-09-12T05:12:48.400Z,84.03
2022-09-12T05:15:19.133Z,83.89
2022-09-12T05:17:50.112Z,84.10
2022-09-12T05:20:21.708Z,84.23
2022-09-12T05:22:52.964Z,84.18
2022-09-12T05:25:23.849Z,84.34
2022-09-12T05:27:56.938Z,84.21
2022-09-12T05:30:28.175Z,84.43
2022-09-12T05:32:59.380Z,84.56
2022-09-12T05:35:30.236Z,84.67
2022-09-12T05:38:01.023Z,84.58
2022-09-12T05:40:30.821Z,84.66
2022-09-12T05:43:02.219Z,84.96
2022-09-12T05:45:33.758Z,85.14
2022-09-12T05:48:05.470Z,85.35
2022-09-12T05:50:36.239Z,85.28
2022-09-12T05:53:08.733Z,85.29
2022-09-12T05:55:41.952Z,85.07
2022-09-12T05:58:13.274Z,84.90
2022-09-12T06:00:44.321Z,84.72
2022-09-12T06:03:15.304Z,84.60
2022-09-12T06:05:50.482Z,84.60
2022-09-12T06:08:21.669Z,84.42
2022-09-12T06:10:52.827Z,84.31
2022-09-12T06:13:23.802Z,84.34
2022-09-12T06:15:55.227Z,84.13
2022-09-12T06:18:26.275Z,83.87
2022-09-12T06:20:57.488Z,83.43
2022-09-12T06:23:27.980Z,83.12
2022-09-12T06:25:58.842Z,83.11
2022-09-12T06:28:29.925Z,83.03
2022-09-12T06:31:06.438Z,81.67
2022-09-12T06:33:36.705Z,80.41
2022-09-12T06:36:12.554Z,79.96
2022-09-12T06:38:44.435Z,78.76
2022-09-12T06:41:16.635Z,78.55
2022-09-12T06:43:47.487Z,77.39
2022-09-12T06:46:19.135Z,75.81
2022-09-12T06:48:51.075Z,75.04
2022-09-12T06:51:22.751Z,75.06
2022-09-12T06:53:55.935Z,74.57
2022-09-12T06:56:28.651Z,72.99
2022-09-12T06:59:00.548Z,72.38
2022-09-12T07:01:33.264Z,72.22
2022-09-12T07:04:05.793Z,71.99
2022-09-12T07:06:41.080Z,71.19
2022-09-12T07:09:16.419Z,70.62
2022-09-12T07:11:48.048Z,71.05
2022-09-12T07:14:19.153Z,70.65
2022-09-12T07:16:50.509Z,69.73
2022-09-12T07:19:21.314Z,69.47
2022-09-12T07:21:57.947Z,69.53
2022-09-12T07:24:30.271Z,69.67
2022-09-12T07:27:01.215Z,70.06
2022-09-12T07:29:36.986Z,68.73
2022-09-12T07:32:09.323Z,68.26
2022-09-12T07:34:40.443Z,68.32
2022-09-12T07:37:11.726Z,69.29
2022-09-12T07:39:43.010Z,68.75
2022-09-12T07:42:14.772Z,67.82
2022-09-12T07:44:46.285Z,67.75
2022-09-12T07:47:18.186Z,64.86
2022-09-12T07:49:49.066Z,66.04
2022-09-12T07:52:20.230Z,64.09
2022-09-12T07:54:51.425Z,62.94
2022-09-12T07:57:22.445Z,63.20
2022-09-12T07:59:53.576Z,63.73
2022-09-12T08:02:24.567Z,63.57
2022-09-12T08:04:55.340Z,62.93
2022-09-12T08:07:26.569Z,61.43
2022-09-12T08:09:57.603Z,62.41
2022-09-12T08:12:28.446Z,59.97
2022-09-12T08:15:00.121Z,59.71
2022-09-12T08:17:31.750Z,56.86
2022-09-12T08:20:03.006Z,58.27
2022-09-12T08:22:34.681Z,58.71
2022-09-12T08:25:08.946Z,58.96
2022-09-12T08:27:39.806Z,59.12
2022-09-12T08:30:12.973Z,58.77
2022-09-12T08:32:44.272Z,58.63
2022-09-12T08:35:15.696Z,58.61
2022-09-12T08:37:46.790Z,59.21
2022-09-12T08:40:19.928Z,58.69
2022-09-12T08:43:02.469Z,58.91
2022-09-12T08:45:38.093Z,58.49
2022-09-12T08:48:13.752Z,59.07
2022-09-12T08:50:49.762Z,57.23
2022-09-12T08:53:26.072Z,55.28
2022-09-12T08:56:00.576Z,55.27
2022-09-12T08:58:37.662Z,56.13
2022-09-12T09:01:15.441Z,55.93
2022-09-12T09:03:58.813Z,56.87
2022-09-12T09:06:54.008Z,57.12
2022-09-12T09:09:39.859Z,55.57
2022-09-12T09:12:20.031Z,54.45
2022-09-12T09:15:06.049Z,54.74
2022-09-12T09:17:42.794Z,55.96
2022-09-12T09:20:24.234Z,51.87
2022-09-12T09:22:59.887Z,52.37
2022-09-12T09:25:42.348Z,53.70
2022-09-12T09:28:21.008Z,54.77
2022-09-12T09:30:52.312Z,52.44
2022-09-12T09:33:27.561Z,52.55
2022-09-12T09:36:14.167Z,51.58
2022-09-12T09:38:51.246Z,52.54
2022-09-12T09:41:37.395Z,52.38
2022-09-12T09:46:44.234Z,52.34
2022-09-12T09:49:18.061Z,50.64
2022-09-12T09:51:49.463Z,50.89
2022-09-12T09:54:25.704Z,51.82
2022-09-12T09:56:57.364Z,51.48
2022-09-12T09:59:31.337Z,51.73
2022-09-12T10:02:05.408Z,51.84
2022-09-12T10:04:41.507Z,52.02
2022-09-12T10:07:21.811Z,52.31
2022-09-12T10:10:08.312Z,51.97
2022-09-12T10:12:39.904Z,52.46
2022-09-12T10:15:20.734Z,53.34
2022-09-12T10:17:53.664Z,52.17
2022-09-12T10:20:37.281Z,52.26
2022-09-12T10:23:30.691Z,51.52
2022-09-12T10:26:04.871Z,48.22
2022-09-12T10:28:40.001Z,49.50
2022-09-12T10:31:16.732Z,49.76
2022-09-12T10:33:52.817Z,49.42
2022-09-12T10:36:24.375Z,50.06
2022-09-12T10:38:58.286Z,50.57
2022-09-12T10:41:36.240Z,50.76
2022-09-12T10:44:17.002Z,51.08
2022-09-12T10:46:48.842Z,50.75
2022-09-12T10:49:28.693Z,51.29
2022-09-12T10:52:16.512Z,50.77
2022-09-12T10:54:47.949Z,50.35
2022-09-12T10:57:38.284Z,51.42
2022-09-12T11:00:17.100Z,50.76
2022-09-12T11:02:59.494Z,50.99
2022-09-12T11:05:42.974Z,51.72
2022-09-12T11:08:35.549Z,51.95
2022-09-12T11:11:14.923Z,51.35
2022-09-12T11:14:01.256Z,51.51
2022-09-12T11:16:42.103Z,52.25
2022-09-12T11:19:38.869Z,52.82
2022-09-12T11:22:28.649Z,52.77
2022-09-12T11:25:21.077Z,52.98
2022-09-12T11:28:17.356Z,53.10
2022-09-12T11:30:59.900Z,52.84
2022-09-12T11:33:39.700Z,52.65
2022-09-12T11:36:28.072Z,52.67
2022-09-12T11:39:11.592Z,52.39
2022-09-12T11:41:44.783Z,52.74
2022-09-12T11:44:21.959Z,52.33
2022-09-12T11:46:53.011Z,50.24
2022-09-12T11:49:35.753Z,49.54
2022-09-12T11:52:14.587Z,49.69
2022-09-12T11:54:53.497Z,50.32
2022-09-12T11:57:32.230Z,49.13
2022-09-12T12:00:07.965Z,48.98
2022-09-12T12:02:49.394Z,47.03
2022-09-12T12:05:25.820Z,47.11
2022-09-12T12:07:55.913Z,47.19
2022-09-12T12:10:33.082Z,47.35
2022-09-12T12:13:13.309Z,46.23
2022-09-12T12:15:49.581Z,46.05
2022-09-12T12:18:23.890Z,46.35
2022-09-12T12:20:56.830Z,46.56
2022-09-12T12:23:31.353Z,46.74
2022-09-12T12:26:04.544Z,47.67
2022-09-12T12:29:02.556Z,48.14
2022-09-12T12:31:53.753Z,47.51
2022-09-12T12:34:31.360Z,48.88
2022-09-12T12:37:40.984Z,47.89
2022-09-12T12:40:22.628Z,48.28
2022-09-12T12:43:31.603Z,48.66
2022-09-12T12:46:06.070Z,49.25
2022-09-12T12:49:11.645Z,49.45
2022-09-12T12:52:01.494Z,49.61
2022-09-12T12:54:50.914Z,49.92
2022-09-12T12:57:39.461Z,49.63
2022-09-12T13:00:28.245Z,49.18
2022-09-12T13:03:02.605Z,49.04
2022-09-12T13:05:42.663Z,49.40
2022-09-12T13:08:31.730Z,49.76
2022-09-12T13:11:08.772Z,49.43
2022-09-12T13:13:48.301Z,50.09
2022-09-12T13:16:42.329Z,48.69
2022-09-12T13:19:19.775Z,49.50
2022-09-12T13:22:01.098Z,49.54
2022-09-12T13:24:32.361Z,49.06
2022-09-12T13:27:04.590Z,49.63
2022-09-12T13:29:35.938Z,50.49
2022-09-12T13:32:07.471Z,50.12
2022-09-12T13:34:45.760Z,49.55
2022-09-12T13:37:33.543Z,49.76
2022-09-12T13:40:17.686Z,50.81
2022-09-12T13:42:50.942Z,50.05
2022-09-12T13:45:24.737Z,49.88
2022-09-12T13:47:58.997Z,49.54
2022-09-12T13:50:32.673Z,49.74
2022-09-12T13:53:07.080Z,49.46
2022-09-12T13:55:41.636Z,48.43
2022-09-12T13:58:21.581Z,47.43
2022-09-12T14:01:07.351Z,48.60
2022-09-12T14:04:01.781Z,48.60
2022-09-12T14:06:44.844Z,49.35
2022-09-12T14:09:32.152Z,49.12
2022-09-12T14:12:03.521Z,48.48
2022-09-12T14:14:37.589Z,46.02
2022-09-12T14:17:23.804Z,45.24
2022-09-12T14:19:55.065Z,45.52
2022-09-12T14:22:28.319Z,45.23
2022-09-12T14:25:02.077Z,44.96
2022-09-12T14:27:39.972Z,42.93
2022-09-12T14:30:24.290Z,42.28
2022-09-12T14:33:22.189Z,40.60
2022-09-12T14:36:08.361Z,41.14
2022-09-12T14:38:42.517Z,43.26
2022-09-12T14:41:15.408Z,43.21
2022-09-12T14:43:52.132Z,44.03
2022-09-12T14:46:28.599Z,44.72
2022-09-12T14:49:03.433Z,44.39
2022-09-12T14:51:39.286Z,45.04
2022-09-12T14:54:38.792Z,46.01
2022-09-12T14:57:36.794Z,45.43
2022-09-12T15:00:24.526Z,45.21
2022-09-12T15:02:55.975Z,44.27
2022-09-12T15:05:29.766Z,44.87
2022-09-12T15:08:04.357Z,43.83
2022-09-12T15:10:38.297Z,43.51
2022-09-12T15:13:21.463Z,43.77
2022-09-12T15:15:55.908Z,43.75
2022-09-12T15:18:28.957Z,43.80
2022-09-12T15:21:04.736Z,43.31
2022-09-12T15:23:40.260Z,43.20
2022-09-12T15:26:13.296Z,43.26
2022-09-12T15:28:44.534Z,43.54
2022-09-12T15:31:26.310Z,43.92
2022-09-12T15:33:59.148Z,44.36
2022-09-12T15:36:30.374Z,44.19
2022-09-12T15:39:01.175Z,44.61
2022-09-12T15:41:35.671Z,44.48
2022-09-12T15:44:09.363Z,44.27
2022-09-12T15:46:40.552Z,44.26
2022-09-12T15:49:12.010Z,43.96
2022-09-12T15:51:42.907Z,44.65
2022-09-12T15:54:16.284Z,44.83
2022-09-12T15:56:47.214Z,45.48
2022-09-12T15:59:18.319Z,44.21
2022-09-12T16:01:49.859Z,44.09
2022-09-12T16:04:25.049Z,45.09
2022-09-12T16:06:57.523Z,45.40
2022-09-12T16:09:28.901Z,45.55
2022-09-12T16:11:59.913Z,45.89
2022-09-12T16:14:31.035Z,45.93
2022-09-12T16:17:01.796Z,46.37
2022-09-12T16:19:33.403Z,47.16
2022-09-12T16:22:04.299Z,48.11
2022-09-12T16:24:35.530Z,48.91
2022-09-12T16:27:07.042Z,49.72
2022-09-12T16:29:38.447Z,50.43
2022-09-12T16:32:09.591Z,50.84
2022-09-12T16:34:40.678Z,51.65
2022-09-12T16:37:11.635Z,52.17
2022-09-12T16:39:43.067Z,53.21
2022-09-12T16:42:13.962Z,53.50
2022-09-12T16:44:44.982Z,53.92
2022-09-12T16:47:16.456Z,53.42
2022-09-12T16:49:47.440Z,53.99
2022-09-12T16:52:19.391Z,54.66
2022-09-12T16:54:51.024Z,55.57
2022-09-12T16:57:22.900Z,56.26
2022-09-12T16:59:54.471Z,56.48
2022-09-12T17:02:25.472Z,56.93
2022-09-12T17:05:02.588Z,57.27
2022-09-12T17:07:34.700Z,57.84
2022-09-12T17:10:06.515Z,58.25
2022-09-12T17:12:39.037Z,58.65
2022-09-12T17:15:14.966Z,59.20
2022-09-12T17:18:15.269Z,59.42
2022-09-12T17:20:46.495Z,60.08
2022-09-12T17:23:18.266Z,60.56
2022-09-12T17:25:57.020Z,60.96
2022-09-12T17:28:29.204Z,61.36
2022-09-12T17:31:01.793Z,61.82
2022-09-12T17:33:33.263Z,62.35
2022-09-12T17:36:06.168Z,62.92
2022-09-12T17:38:38.084Z,63.67
2022-09-12T17:41:11.754Z,63.98
2022-09-12T17:43:42.798Z,64.57
2022-09-12T17:46:14.099Z,64.95
2022-09-12T17:48:45.178Z,65.42
2022-09-12T17:51:18.146Z,65.67
2022-09-12T17:53:49.623Z,65.70
2022-09-12T17:56:29.876Z,66.14
2022-09-12T17:59:02.512Z,66.66
2022-09-12T18:01:51.971Z,66.96
2022-09-12T18:04:23.272Z,67.24
2022-09-12T18:06:55.226Z,67.48
2022-09-12T18:09:26.720Z,67.67
2022-09-12T18:11:57.799Z,67.93
2022-09-12T18:14:29.261Z,68.28
2022-09-12T18:17:00.311Z,68.67
2022-09-12T18:19:32.054Z,69.01
2022-09-12T18:22:03.581Z,69.18
2022-09-12T18:24:34.640Z,69.31
2022-09-12T18:27:06.745Z,69.75
2022-09-12T18:29:37.598Z,70.31
2022-09-12T18:32:06.948Z,70.76
2022-09-12T18:34:38.150Z,71.27
2022-09-12T18:37:08.342Z,71.27
2022-09-12T18:39:42.701Z,71.37
2022-09-12T18:42:13.747Z,71.35
2022-09-12T18:44:45.004Z,71.46
2022-09-12T18:47:16.738Z,71.69
2022-09-12T18:49:47.504Z,72.00
2022-09-12T18:52:19.147Z,71.98
2022-09-12T18:54:50.204Z,72.00
2022-09-12T18:57:19.509Z,72.29
2022-09-12T18:59:53.023Z,72.45
2022-09-12T19:02:28.432Z,72.64
2022-09-12T19:04:59.866Z,72.66
2022-09-12T19:07:31.691Z,72.80
2022-09-12T19:10:02.731Z,73.05
2022-09-12T19:12:33.844Z,73.30
2022-09-12T19:15:05.369Z,73.34
2022-09-12T19:17:36.455Z,73.47
2022-09-12T19:20:08.272Z,73.45
2022-09-12T19:22:39.576Z,73.43
2022-09-12T19:25:21.470Z,73.46
2022-09-12T19:27:52.414Z,73.57
2022-09-12T19:30:23.391Z,73.63
2022-09-12T19:32:54.677Z,73.85
2022-09-12T19:35:25.439Z,73.74
2022-09-12T19:37:56.785Z,73.90
2022-09-12T19:40:28.009Z,74.03
2022-09-12T19:42:58.942Z,74.03
2022-09-12T19:45:30.122Z,74.12
2022-09-12T19:48:01.261Z,74.20
2022-09-12T19:50:34.231Z,74.38
2022-09-12T19:53:05.186Z,74.64
2022-09-12T19:55:37.255Z,74.61
2022-09-12T19:58:08.638Z,74.78
2022-09-12T20:00:39.729Z,74.86
2022-09-12T20:03:10.491Z,74.96
2022-09-12T20:05:42.743Z,75.10
2022-09-12T20:08:14.422Z,75.16
2022-09-12T20:10:45.672Z,75.12
2022-09-12T20:13:16.539Z,75.19
2022-09-12T20:15:45.988Z,75.50
2022-09-12T20:18:17.519Z,75.92
2022-09-12T20:20:49.019Z,76.11
2022-09-12T20:23:19.893Z,75.92
2022-09-12T20:25:51.362Z,76.12
2022-09-12T20:28:22.291Z,76.08
2022-09-12T20:30:51.754Z,76.07
2022-09-12T20:33:21.238Z,76.09
2022-09-12T20:35:52.329Z,76.12
2022-09-12T20:38:23.271Z,76.09
2022-09-12T20:40:54.143Z,76.22
2022-09-12T20:43:23.543Z,76.25
2022-09-12T20:45:54.667Z,76.36
2022-09-12T20:48:25.719Z,76.60
2022-09-12T20:50:59.208Z,76.53
2022-09-12T20:53:34.848Z,76.42
2022-09-12T20:56:07.397Z,76.50
2022-09-12T20:58:43.034Z,76.50
2022-09-12T21:01:17.069Z,76.71
2022-09-12T21:03:48.249Z,76.95
2022-09-12T21:06:20.120Z,77.04
2022-09-12T21:08:51.559Z,76.94
2022-09-12T21:11:23.228Z,77.02
2022-09-12T21:13:54.365Z,77.23
2022-09-12T21:16:25.881Z,77.32
2022-09-12T21:18:58.577Z,77.44
2022-09-12T21:21:29.657Z,77.36
2022-09-12T21:24:03.722Z,77.18
2022-09-12T21:26:35.174Z,77.25
2022-09-12T21:29:06.352Z,77.34
2022-09-12T21:31:37.561Z,77.45
2022-09-12T21:34:08.558Z,77.49
2022-09-12T21:36:38.239Z,77.53
2022-09-12T21:39:09.126Z,77.65
2022-09-12T21:41:40.564Z,77.58
2022-09-12T21:44:11.623Z,77.58
2022-09-12T21:46:42.594Z,77.50
2022-09-12T21:49:13.589Z,77.60
2022-09-12T21:51:44.259Z,77.52
2022-09-12T21:54:15.367Z,77.35
2022-09-12T21:56:44.578Z,77.08
2022-09-12T21:59:15.503Z,77.10
2022-09-12T22:01:45.170Z,77.12
2022-09-12T22:04:16.327Z,76.95
2022-09-12T22:06:47.502Z,77.06
2022-09-12T22:09:18.779Z,77.15
2022-09-12T22:11:49.995Z,77.30
2022-09-12T22:14:21.342Z,77.34
2022-09-12T22:16:52.678Z,77.56
2022-09-12T22:19:23.760Z,77.83
2022-09-12T22:22:12.238Z,78.18
2022-09-12T22:24:43.294Z,78.26
2022-09-12T22:27:14.372Z,78.45
2022-09-12T22:29:46.266Z,78.50
2022-09-12T22:32:17.339Z,78.62
2022-09-12T22:34:46.841Z,78.70
2022-09-12T22:37:17.941Z,78.76
2022-09-12T22:39:48.943Z,78.60
2022-09-12T22:42:19.985Z,78.67
2022-09-12T22:44:49.512Z,78.55
2022-09-12T22:47:20.143Z,78.45
2022-09-12T22:49:50.791Z,78.48
2022-09-12T22:52:20.259Z,78.20
2022-09-12T22:54:51.466Z,78.26
2022-09-12T22:57:22.655Z,78.16
2022-09-12T22:59:53.633Z,78.36
2022-09-12T23:02:24.459Z,78.40
2022-09-12T23:04:55.443Z,78.43
2022-09-12T23:07:24.898Z,78.56
2022-09-12T23:09:55.633Z,78.79
2022-09-12T23:12:29.082Z,78.85
2022-09-12T23:15:02.615Z,78.90
2022-09-12T23:17:35.086Z,78.86
2022-09-12T23:20:07.265Z,79.00
2022-09-12T23:22:39.518Z,78.98
2022-09-12T23:25:11.866Z,79.12
2022-09-12T23:27:43.456Z,79.31
2022-09-12T23:30:21.664Z,79.46
2022-09-12T23:32:54.048Z,79.47
2022-09-12T23:35:23.418Z,79.55
2022-09-12T23:37:54.393Z,79.62
2022-09-12T23:40:25.362Z,79.66
2022-09-12T23:42:54.669Z,79.62
2022-09-12T23:45:25.730Z,79.69
2022-09-12T23:47:56.596Z,79.57
2022-09-12T23:50:27.511Z,79.46
2022-09-12T23:52:58.303Z,79.25
2022-09-12T23:55:29.741Z,79.25
2022-09-12T23:58:00.679Z,79.39
